sensor_id;sensor_type;location;lat;lon;timestamp;P1;durP1;ratioP1;P2;durP2;ratioP2
840;SDS011;406;48.566;13.450;2022-08-23T00:00:59;6.33;;;5.77;;
840;SDS011;406;48.566;13.450;2022-08-23T00:03:24;7.00;;;6.40;;
840;SDS011;406;48.566;13.450;2022-08-23T00:05:50;6.50;;;6.00;;
840;SDS011;406;48.566;13.450;2022-08-23T00:08:15;8.63;;;6.20;;
840;SDS011;406;48.566;13.450;2022-08-23T00:10:41;5.77;;;5.20;;
840;SDS011;406;48.566;13.450;2022-08-23T00:13:06;12.60;;;5.73;;
840;SDS011;406;48.566;13.450;2022-08-23T00:15:32;6.10;;;5.50;;
840;SDS011;406;48.566;13.450;2022-08-23T00:17:57;8.03;;;6.20;;
840;SDS011;406;48.566;13.450;2022-08-23T00:20:24;9.00;;;7.07;;
840;SDS011;406;48.566;13.450;2022-08-23T00:22:50;6.43;;;5.70;;
840;SDS011;406;48.566;13.450;2022-08-23T00:25:16;6.93;;;6.07;;
840;SDS011;406;48.566;13.450;2022-08-23T00:27:42;6.40;;;5.80;;
840;SDS011;406;48.566;13.450;2022-08-23T00:30:09;6.67;;;6.13;;
840;SDS011;406;48.566;13.450;2022-08-23T00:32:36;6.67;;;5.60;;
840;SDS011;406;48.566;13.450;2022-08-23T00:35:03;6.80;;;5.30;;
840;SDS011;406;48.566;13.450;2022-08-23T00:37:29;6.80;;;6.10;;
840;SDS011;406;48.566;13.450;2022-08-23T00:39:56;6.10;;;5.50;;
840;SDS011;406;48.566;13.450;2022-08-23T00:42:42;7.00;;;5.57;;
840;SDS011;406;48.566;13.450;2022-08-23T00:45:43;6.77;;;5.07;;
840;SDS011;406;48.566;13.450;2022-08-23T00:48:42;6.93;;;6.27;;
840;SDS011;406;48.566;13.450;2022-08-23T00:53:51;6.57;;;6.07;;
840;SDS011;406;48.566;13.450;2022-08-23T00:56:19;6.80;;;6.10;;
840;SDS011;406;48.566;13.450;2022-08-23T00:58:46;8.27;;;6.40;;
840;SDS011;406;48.566;13.450;2022-08-23T01:01:12;8.73;;;6.50;;
840;SDS011;406;48.566;13.450;2022-08-23T01:03:39;6.23;;;5.43;;
840;SDS011;406;48.566;13.450;2022-08-23T01:06:09;6.70;;;6.10;;
840;SDS011;406;48.566;13.450;2022-08-23T01:08:38;6.77;;;6.17;;
840;SDS011;406;48.566;13.450;2022-08-23T01:11:15;12.33;;;6.80;;
840;SDS011;406;48.566;13.450;2022-08-23T01:13:46;11.73;;;6.57;;
840;SDS011;406;48.566;13.450;2022-08-23T01:16:26;7.53;;;6.10;;
840;SDS011;406;48.566;13.450;2022-08-23T01:18:58;6.90;;;6.30;;
840;SDS011;406;48.566;13.450;2022-08-23T01:21:32;6.03;;;5.53;;
840;SDS011;406;48.566;13.450;2022-08-23T01:24:04;7.90;;;6.30;;
840;SDS011;406;48.566;13.450;2022-08-23T01:26:31;7.00;;;6.37;;
840;SDS011;406;48.566;13.450;2022-08-23T01:29:00;6.93;;;6.23;;
840;SDS011;406;48.566;13.450;2022-08-23T01:31:28;7.17;;;6.40;;
840;SDS011;406;48.566;13.450;2022-08-23T01:34:00;7.60;;;7.00;;
840;SDS011;406;48.566;13.450;2022-08-23T01:36:28;9.83;;;7.27;;
840;SDS011;406;48.566;13.450;2022-08-23T01:38:55;7.73;;;7.03;;
840;SDS011;406;48.566;13.450;2022-08-23T01:41:21;7.50;;;6.80;;
840;SDS011;406;48.566;13.450;2022-08-23T01:43:47;8.67;;;7.23;;
840;SDS011;406;48.566;13.450;2022-08-23T01:46:16;9.20;;;7.10;;
840;SDS011;406;48.566;13.450;2022-08-23T01:48:44;11.10;;;6.90;;
840;SDS011;406;48.566;13.450;2022-08-23T01:51:11;9.50;;;6.80;;
840;SDS011;406;48.566;13.450;2022-08-23T01:53:38;7.43;;;6.73;;
840;SDS011;406;48.566;13.450;2022-08-23T01:56:04;10.50;;;7.27;;
840;SDS011;406;48.566;13.450;2022-08-23T01:58:33;8.30;;;7.40;;
840;SDS011;406;48.566;13.450;2022-08-23T02:00:59;8.03;;;7.20;;
840;SDS011;406;48.566;13.450;2022-08-23T02:03:26;12.33;;;7.37;;
840;SDS011;406;48.566;13.450;2022-08-23T02:05:52;9.20;;;6.97;;
840;SDS011;406;48.566;13.450;2022-08-23T02:08:18;6.97;;;6.33;;
840;SDS011;406;48.566;13.450;2022-08-23T02:11:10;8.07;;;7.27;;
840;SDS011;406;48.566;13.450;2022-08-23T02:13:44;9.20;;;7.13;;
840;SDS011;406;48.566;13.450;2022-08-23T02:16:11;7.23;;;6.60;;
840;SDS011;406;48.566;13.450;2022-08-23T02:18:39;11.47;;;7.53;;
840;SDS011;406;48.566;13.450;2022-08-23T02:21:04;6.93;;;6.23;;
840;SDS011;406;48.566;13.450;2022-08-23T02:23:30;7.90;;;7.07;;
840;SDS011;406;48.566;13.450;2022-08-23T02:25:56;7.17;;;6.57;;
840;SDS011;406;48.566;13.450;2022-08-23T02:28:22;7.07;;;6.37;;
840;SDS011;406;48.566;13.450;2022-08-23T02:30:48;8.93;;;7.47;;
840;SDS011;406;48.566;13.450;2022-08-23T02:33:14;8.23;;;7.30;;
840;SDS011;406;48.566;13.450;2022-08-23T02:35:40;11.43;;;8.03;;
840;SDS011;406;48.566;13.450;2022-08-23T02:38:07;7.40;;;6.53;;
840;SDS011;406;48.566;13.450;2022-08-23T02:40:34;7.90;;;7.20;;
840;SDS011;406;48.566;13.450;2022-08-23T02:43:00;8.27;;;7.40;;
840;SDS011;406;48.566;13.450;2022-08-23T02:45:28;10.03;;;7.60;;
840;SDS011;406;48.566;13.450;2022-08-23T02:47:53;8.57;;;7.50;;
840;SDS011;406;48.566;13.450;2022-08-23T02:50:24;8.10;;;7.30;;
840;SDS011;406;48.566;13.450;2022-08-23T02:52:51;8.83;;;7.83;;
840;SDS011;406;48.566;13.450;2022-08-23T02:55:17;7.70;;;7.00;;
840;SDS011;406;48.566;13.450;2022-08-23T02:57:42;9.50;;;7.73;;
840;SDS011;406;48.566;13.450;2022-08-23T03:00:11;7.93;;;7.13;;
840;SDS011;406;48.566;13.450;2022-08-23T03:02:38;8.10;;;6.83;;
840;SDS011;406;48.566;13.450;2022-08-23T03:05:04;8.43;;;7.30;;
840;SDS011;406;48.566;13.450;2022-08-23T03:07:31;8.17;;;7.47;;
840;SDS011;406;48.566;13.450;2022-08-23T03:09:57;8.33;;;7.53;;
840;SDS011;406;48.566;13.450;2022-08-23T03:12:23;7.63;;;6.93;;
840;SDS011;406;48.566;13.450;2022-08-23T03:14:52;7.80;;;7.10;;
840;SDS011;406;48.566;13.450;2022-08-23T03:17:17;9.13;;;8.13;;
840;SDS011;406;48.566;13.450;2022-08-23T03:19:43;9.87;;;7.50;;
840;SDS011;406;48.566;13.450;2022-08-23T03:22:09;10.30;;;8.10;;
840;SDS011;406;48.566;13.450;2022-08-23T03:24:34;8.93;;;8.03;;
840;SDS011;406;48.566;13.450;2022-08-23T03:27:01;10.57;;;8.23;;
840;SDS011;406;48.566;13.450;2022-08-23T03:29:27;8.25;;;7.32;;
840;SDS011;406;48.566;13.450;2022-08-23T03:31:59;9.37;;;7.77;;
840;SDS011;406;48.566;13.450;2022-08-23T03:34:25;15.63;;;8.67;;
840;SDS011;406;48.566;13.450;2022-08-23T03:36:51;9.07;;;8.07;;
840;SDS011;406;48.566;13.450;2022-08-23T03:39:17;8.73;;;7.83;;
840;SDS011;406;48.566;13.450;2022-08-23T03:41:43;9.03;;;7.30;;
840;SDS011;406;48.566;13.450;2022-08-23T03:44:08;10.07;;;8.67;;
840;SDS011;406;48.566;13.450;2022-08-23T03:46:38;8.57;;;7.87;;
840;SDS011;406;48.566;13.450;2022-08-23T03:49:04;9.00;;;7.70;;
840;SDS011;406;48.566;13.450;2022-08-23T03:51:40;8.83;;;7.90;;
840;SDS011;406;48.566;13.450;2022-08-23T03:54:07;7.90;;;6.87;;
840;SDS011;406;48.566;13.450;2022-08-23T03:56:35;8.87;;;7.97;;
840;SDS011;406;48.566;13.450;2022-08-23T03:59:06;8.90;;;7.77;;
840;SDS011;406;48.566;13.450;2022-08-23T04:01:33;8.80;;;8.00;;
840;SDS011;406;48.566;13.450;2022-08-23T04:03:59;8.37;;;7.57;;
840;SDS011;406;48.566;13.450;2022-08-23T04:06:26;8.73;;;7.57;;
840;SDS011;406;48.566;13.450;2022-08-23T04:08:52;10.30;;;9.40;;
840;SDS011;406;48.566;13.450;2022-08-23T04:11:21;8.70;;;7.80;;
840;SDS011;406;48.566;13.450;2022-08-23T04:13:54;8.97;;;8.07;;
840;SDS011;406;48.566;13.450;2022-08-23T04:16:20;9.40;;;8.40;;
840;SDS011;406;48.566;13.450;2022-08-23T04:18:46;8.33;;;7.53;;
840;SDS011;406;48.566;13.450;2022-08-23T04:21:18;10.43;;;8.57;;
840;SDS011;406;48.566;13.450;2022-08-23T04:23:46;8.83;;;8.03;;
840;SDS011;406;48.566;13.450;2022-08-23T04:26:13;9.33;;;7.50;;
840;SDS011;406;48.566;13.450;2022-08-23T04:28:40;8.43;;;7.63;;
840;SDS011;406;48.566;13.450;2022-08-23T04:31:06;10.47;;;8.00;;
840;SDS011;406;48.566;13.450;2022-08-23T04:33:32;8.83;;;7.87;;
840;SDS011;406;48.566;13.450;2022-08-23T04:35:58;9.93;;;8.13;;
840;SDS011;406;48.566;13.450;2022-08-23T04:38:26;10.17;;;9.10;;
840;SDS011;406;48.566;13.450;2022-08-23T04:40:55;11.53;;;8.50;;
840;SDS011;406;48.566;13.450;2022-08-23T04:43:40;9.93;;;9.10;;
840;SDS011;406;48.566;13.450;2022-08-23T04:46:10;9.10;;;8.27;;
840;SDS011;406;48.566;13.450;2022-08-23T04:48:40;8.90;;;8.00;;
840;SDS011;406;48.566;13.450;2022-08-23T04:51:06;9.20;;;8.30;;
840;SDS011;406;48.566;13.450;2022-08-23T04:53:35;10.10;;;7.90;;
840;SDS011;406;48.566;13.450;2022-08-23T04:56:21;10.10;;;9.10;;
840;SDS011;406;48.566;13.450;2022-08-23T04:58:48;14.93;;;8.13;;
840;SDS011;406;48.566;13.450;2022-08-23T05:01:13;8.90;;;8.10;;
840;SDS011;406;48.566;13.450;2022-08-23T05:03:41;8.97;;;8.10;;
840;SDS011;406;48.566;13.450;2022-08-23T05:06:07;11.10;;;8.67;;
840;SDS011;406;48.566;13.450;2022-08-23T05:08:37;9.23;;;8.20;;
840;SDS011;406;48.566;13.450;2022-08-23T05:11:05;9.80;;;8.00;;
840;SDS011;406;48.566;13.450;2022-08-23T05:13:32;9.17;;;8.33;;
840;SDS011;406;48.566;13.450;2022-08-23T05:15:58;9.40;;;8.20;;
840;SDS011;406;48.566;13.450;2022-08-23T05:18:27;9.20;;;8.20;;
840;SDS011;406;48.566;13.450;2022-08-23T05:20:53;9.53;;;8.53;;
840;SDS011;406;48.566;13.450;2022-08-23T05:23:18;13.33;;;9.13;;
840;SDS011;406;48.566;13.450;2022-08-23T05:25:51;8.40;;;7.60;;
840;SDS011;406;48.566;13.450;2022-08-23T05:28:25;10.77;;;8.80;;
840;SDS011;406;48.566;13.450;2022-08-23T05:30:57;9.23;;;8.33;;
840;SDS011;406;48.566;13.450;2022-08-23T05:33:24;10.17;;;9.17;;
840;SDS011;406;48.566;13.450;2022-08-23T05:35:51;9.83;;;7.73;;
840;SDS011;406;48.566;13.450;2022-08-23T05:38:17;9.00;;;8.20;;
840;SDS011;406;48.566;13.450;2022-08-23T05:40:43;9.13;;;8.33;;
840;SDS011;406;48.566;13.450;2022-08-23T05:43:11;9.57;;;8.67;;
840;SDS011;406;48.566;13.450;2022-08-23T05:45:37;8.83;;;8.03;;
840;SDS011;406;48.566;13.450;2022-08-23T05:48:02;8.30;;;7.50;;
840;SDS011;406;48.566;13.450;2022-08-23T05:50:46;8.53;;;7.60;;
840;SDS011;406;48.566;13.450;2022-08-23T05:53:12;9.00;;;8.23;;
840;SDS011;406;48.566;13.450;2022-08-23T05:55:40;8.80;;;7.80;;
840;SDS011;406;48.566;13.450;2022-08-23T05:58:16;9.80;;;7.67;;
840;SDS011;406;48.566;13.450;2022-08-23T06:00:42;8.43;;;7.63;;
840;SDS011;406;48.566;13.450;2022-08-23T06:03:08;11.60;;;7.70;;
840;SDS011;406;48.566;13.450;2022-08-23T06:05:37;9.10;;;8.30;;
840;SDS011;406;48.566;13.450;2022-08-23T06:08:04;9.90;;;7.80;;
840;SDS011;406;48.566;13.450;2022-08-23T06:10:30;12.47;;;8.20;;
840;SDS011;406;48.566;13.450;2022-08-23T06:13:10;9.37;;;8.57;;
840;SDS011;406;48.566;13.450;2022-08-23T06:15:41;8.97;;;8.17;;
840;SDS011;406;48.566;13.450;2022-08-23T06:18:08;10.27;;;9.37;;
840;SDS011;406;48.566;13.450;2022-08-23T06:20:34;10.23;;;8.93;;
840;SDS011;406;48.566;13.450;2022-08-23T06:23:04;10.67;;;8.80;;
840;SDS011;406;48.566;13.450;2022-08-23T06:25:34;10.53;;;8.67;;
840;SDS011;406;48.566;13.450;2022-08-23T06:28:06;9.57;;;8.60;;
840;SDS011;406;48.566;13.450;2022-08-23T06:30:32;10.80;;;9.63;;
840;SDS011;406;48.566;13.450;2022-08-23T06:33:00;11.10;;;9.07;;
840;SDS011;406;48.566;13.450;2022-08-23T06:36:05;9.43;;;8.47;;
840;SDS011;406;48.566;13.450;2022-08-23T06:38:56;9.50;;;8.57;;
840;SDS011;406;48.566;13.450;2022-08-23T06:41:45;10.00;;;9.10;;
840;SDS011;406;48.566;13.450;2022-08-23T06:44:26;10.40;;;9.27;;
840;SDS011;406;48.566;13.450;2022-08-23T06:46:57;11.47;;;9.17;;
840;SDS011;406;48.566;13.450;2022-08-23T06:49:24;11.67;;;10.57;;
840;SDS011;406;48.566;13.450;2022-08-23T06:51:51;9.00;;;8.10;;
840;SDS011;406;48.566;13.450;2022-08-23T06:54:25;11.37;;;9.10;;
840;SDS011;406;48.566;13.450;2022-08-23T06:57:06;11.17;;;10.07;;
840;SDS011;406;48.566;13.450;2022-08-23T06:59:45;10.53;;;9.47;;
840;SDS011;406;48.566;13.450;2022-08-23T07:02:33;10.57;;;9.47;;
840;SDS011;406;48.566;13.450;2022-08-23T07:05:21;10.67;;;9.47;;
840;SDS011;406;48.566;13.450;2022-08-23T07:08:11;9.87;;;8.83;;
840;SDS011;406;48.566;13.450;2022-08-23T07:10:37;9.20;;;8.37;;
840;SDS011;406;48.566;13.450;2022-08-23T07:13:02;10.93;;;8.17;;
840;SDS011;406;48.566;13.450;2022-08-23T07:15:28;12.93;;;9.37;;
840;SDS011;406;48.566;13.450;2022-08-23T07:17:53;11.63;;;7.83;;
840;SDS011;406;48.566;13.450;2022-08-23T07:20:20;8.60;;;7.90;;
840;SDS011;406;48.566;13.450;2022-08-23T07:22:45;8.23;;;6.90;;
840;SDS011;406;48.566;13.450;2022-08-23T07:25:11;7.90;;;7.20;;
840;SDS011;406;48.566;13.450;2022-08-23T07:27:38;8.10;;;7.40;;
840;SDS011;406;48.566;13.450;2022-08-23T07:30:05;8.30;;;6.60;;
840;SDS011;406;48.566;13.450;2022-08-23T07:32:33;7.57;;;6.87;;
840;SDS011;406;48.566;13.450;2022-08-23T07:35:09;9.73;;;6.90;;
840;SDS011;406;48.566;13.450;2022-08-23T07:37:39;6.70;;;6.00;;
840;SDS011;406;48.566;13.450;2022-08-23T07:40:05;7.63;;;6.10;;
840;SDS011;406;48.566;13.450;2022-08-23T07:42:32;7.83;;;7.20;;
840;SDS011;406;48.566;13.450;2022-08-23T07:44:58;8.00;;;6.50;;
840;SDS011;406;48.566;13.450;2022-08-23T07:47:25;7.07;;;6.17;;
840;SDS011;406;48.566;13.450;2022-08-23T07:49:54;11.67;;;6.27;;
840;SDS011;406;48.566;13.450;2022-08-23T07:52:20;6.27;;;5.60;;
840;SDS011;406;48.566;13.450;2022-08-23T07:54:46;6.20;;;5.60;;
840;SDS011;406;48.566;13.450;2022-08-23T07:57:34;5.70;;;5.10;;
840;SDS011;406;48.566;13.450;2022-08-23T08:00:08;6.60;;;4.80;;
840;SDS011;406;48.566;13.450;2022-08-23T08:02:49;5.43;;;4.20;;
840;SDS011;406;48.566;13.450;2022-08-23T08:05:23;5.30;;;4.30;;
840;SDS011;406;48.566;13.450;2022-08-23T08:07:50;6.67;;;5.10;;
840;SDS011;406;48.566;13.450;2022-08-23T08:10:16;5.00;;;4.50;;
840;SDS011;406;48.566;13.450;2022-08-23T08:12:41;17.67;;;5.70;;
840;SDS011;406;48.566;13.450;2022-08-23T08:15:16;4.60;;;4.17;;
840;SDS011;406;48.566;13.450;2022-08-23T08:17:47;5.13;;;3.80;;
840;SDS011;406;48.566;13.450;2022-08-23T08:20:14;10.53;;;4.27;;
840;SDS011;406;48.566;13.450;2022-08-23T08:23:06;4.77;;;4.33;;
840;SDS011;406;48.566;13.450;2022-08-23T08:26:01;5.50;;;4.83;;
840;SDS011;406;48.566;13.450;2022-08-23T08:28:30;6.70;;;5.00;;
840;SDS011;406;48.566;13.450;2022-08-23T08:30:56;7.30;;;4.87;;
840;SDS011;406;48.566;13.450;2022-08-23T08:33:24;5.10;;;4.03;;
840;SDS011;406;48.566;13.450;2022-08-23T08:35:52;5.27;;;4.40;;
840;SDS011;406;48.566;13.450;2022-08-23T08:38:18;6.00;;;4.97;;
840;SDS011;406;48.566;13.450;2022-08-23T08:40:43;4.33;;;4.03;;
840;SDS011;406;48.566;13.450;2022-08-23T08:43:20;4.47;;;3.60;;
840;SDS011;406;48.566;13.450;2022-08-23T08:46:06;4.27;;;3.50;;
840;SDS011;406;48.566;13.450;2022-08-23T08:48:42;4.47;;;4.07;;
840;SDS011;406;48.566;13.450;2022-08-23T08:53:58;5.80;;;3.40;;
840;SDS011;406;48.566;13.450;2022-08-23T08:56:29;4.13;;;3.17;;
840;SDS011;406;48.566;13.450;2022-08-23T08:59:03;4.77;;;2.70;;
840;SDS011;406;48.566;13.450;2022-08-23T09:01:32;3.37;;;3.10;;
840;SDS011;406;48.566;13.450;2022-08-23T09:03:59;3.90;;;3.13;;
840;SDS011;406;48.566;13.450;2022-08-23T09:12:31;3.40;;;2.73;;
840;SDS011;406;48.566;13.450;2022-08-23T09:17:53;3.30;;;3.00;;
840;SDS011;406;48.566;13.450;2022-08-23T09:20:22;6.53;;;3.50;;
840;SDS011;406;48.566;13.450;2022-08-23T09:23:01;3.30;;;3.00;;
840;SDS011;406;48.566;13.450;2022-08-23T09:25:32;3.80;;;3.50;;
840;SDS011;406;48.566;13.450;2022-08-23T09:28:16;3.80;;;2.93;;
840;SDS011;406;48.566;13.450;2022-08-23T09:30:46;2.63;;;2.43;;
840;SDS011;406;48.566;13.450;2022-08-23T09:33:24;2.90;;;2.70;;
840;SDS011;406;48.566;13.450;2022-08-23T09:36:25;4.00;;;3.60;;
840;SDS011;406;48.566;13.450;2022-08-23T09:41:26;2.83;;;2.63;;
840;SDS011;406;48.566;13.450;2022-08-23T09:44:04;3.47;;;2.70;;
840;SDS011;406;48.566;13.450;2022-08-23T09:46:33;3.13;;;2.40;;
840;SDS011;406;48.566;13.450;2022-08-23T09:49:20;3.20;;;2.50;;
840;SDS011;406;48.566;13.450;2022-08-23T09:51:47;4.20;;;2.50;;
840;SDS011;406;48.566;13.450;2022-08-23T09:56:50;3.93;;;2.70;;
840;SDS011;406;48.566;13.450;2022-08-23T10:01:54;3.30;;;2.80;;
840;SDS011;406;48.566;13.450;2022-08-23T10:06:59;26.57;;;3.40;;
840;SDS011;406;48.566;13.450;2022-08-23T10:09:27;2.90;;;2.30;;
840;SDS011;406;48.566;13.450;2022-08-23T10:11:59;3.07;;;2.70;;
840;SDS011;406;48.566;13.450;2022-08-23T10:14:25;3.40;;;2.50;;
840;SDS011;406;48.566;13.450;2022-08-23T10:22:41;3.30;;;2.40;;
840;SDS011;406;48.566;13.450;2022-08-23T10:25:25;3.63;;;2.00;;
840;SDS011;406;48.566;13.450;2022-08-23T10:28:04;3.17;;;2.27;;
840;SDS011;406;48.566;13.450;2022-08-23T10:31:31;2.50;;;2.00;;
840;SDS011;406;48.566;13.450;2022-08-23T10:39:26;2.40;;;2.20;;
840;SDS011;406;48.566;13.450;2022-08-23T10:44:38;2.00;;;1.80;;
840;SDS011;406;48.566;13.450;2022-08-23T10:50:12;2.53;;;1.70;;
840;SDS011;406;48.566;13.450;2022-08-23T10:52:57;2.60;;;1.90;;
840;SDS011;406;48.566;13.450;2022-08-23T10:55:28;2.17;;;1.63;;
840;SDS011;406;48.566;13.450;2022-08-23T10:58:02;2.00;;;1.80;;
840;SDS011;406;48.566;13.450;2022-08-23T11:00:29;3.67;;;1.70;;
840;SDS011;406;48.566;13.450;2022-08-23T11:03:03;2.10;;;1.90;;
840;SDS011;406;48.566;13.450;2022-08-23T11:06:24;2.03;;;1.73;;
840;SDS011;406;48.566;13.450;2022-08-23T11:14:10;3.07;;;1.83;;
840;SDS011;406;48.566;13.450;2022-08-23T11:17:00;1.80;;;1.53;;
840;SDS011;406;48.566;13.450;2022-08-23T11:22:18;1.80;;;1.63;;
840;SDS011;406;48.566;13.450;2022-08-23T11:24:53;2.40;;;2.20;;
840;SDS011;406;48.566;13.450;2022-08-23T11:27:33;3.03;;;1.90;;
840;SDS011;406;48.566;13.450;2022-08-23T11:35:44;2.10;;;1.67;;
840;SDS011;406;48.566;13.450;2022-08-23T11:38:17;2.80;;;2.00;;
840;SDS011;406;48.566;13.450;2022-08-23T11:43:39;2.50;;;2.20;;
840;SDS011;406;48.566;13.450;2022-08-23T11:49:03;2.20;;;2.00;;
840;SDS011;406;48.566;13.450;2022-08-23T11:57:18;4.07;;;3.40;;
840;SDS011;406;48.566;13.450;2022-08-23T12:07:46;3.73;;;2.50;;
840;SDS011;406;48.566;13.450;2022-08-23T12:18:53;3.37;;;3.10;;
840;SDS011;406;48.566;13.450;2022-08-23T12:30:04;3.20;;;2.93;;
840;SDS011;406;48.566;13.450;2022-08-23T12:32:51;2.20;;;1.47;;
840;SDS011;406;48.566;13.450;2022-08-23T12:37:52;2.20;;;1.70;;
840;SDS011;406;48.566;13.450;2022-08-23T12:40:41;2.03;;;1.83;;
840;SDS011;406;48.566;13.450;2022-08-23T12:43:25;2.67;;;1.97;;
840;SDS011;406;48.566;13.450;2022-08-23T12:45:54;3.60;;;1.33;;
840;SDS011;406;48.566;13.450;2022-08-23T12:48:22;3.20;;;1.83;;
840;SDS011;406;48.566;13.450;2022-08-23T12:50:58;1.57;;;1.33;;
840;SDS011;406;48.566;13.450;2022-08-23T12:53:29;4.30;;;2.27;;
840;SDS011;406;48.566;13.450;2022-08-23T12:56:00;2.37;;;1.80;;
840;SDS011;406;48.566;13.450;2022-08-23T12:58:30;2.97;;;2.00;;
840;SDS011;406;48.566;13.450;2022-08-23T13:00:58;2.13;;;1.93;;
840;SDS011;406;48.566;13.450;2022-08-23T13:06:05;2.60;;;2.00;;
840;SDS011;406;48.566;13.450;2022-08-23T13:08:41;4.33;;;2.20;;
840;SDS011;406;48.566;13.450;2022-08-23T13:11:08;1.90;;;1.80;;
840;SDS011;406;48.566;13.450;2022-08-23T13:13:36;2.70;;;2.50;;
840;SDS011;406;48.566;13.450;2022-08-23T13:16:22;3.67;;;2.23;;
840;SDS011;406;48.566;13.450;2022-08-23T13:18:50;3.00;;;2.53;;
840;SDS011;406;48.566;13.450;2022-08-23T13:21:18;4.07;;;2.73;;
840;SDS011;406;48.566;13.450;2022-08-23T13:23:44;2.70;;;2.10;;
840;SDS011;406;48.566;13.450;2022-08-23T13:29:10;3.93;;;3.53;;
840;SDS011;406;48.566;13.450;2022-08-23T13:39:47;6.90;;;3.03;;
840;SDS011;406;48.566;13.450;2022-08-23T13:45:12;2.80;;;2.60;;
840;SDS011;406;48.566;13.450;2022-08-23T13:47:43;3.73;;;3.43;;
840;SDS011;406;48.566;13.450;2022-08-23T13:50:25;2.87;;;2.67;;
840;SDS011;406;48.566;13.450;2022-08-23T13:52:55;4.43;;;3.60;;
840;SDS011;406;48.566;13.450;2022-08-23T13:55:21;3.40;;;3.10;;
840;SDS011;406;48.566;13.450;2022-08-23T13:57:47;3.13;;;2.83;;
840;SDS011;406;48.566;13.450;2022-08-23T14:00:13;3.80;;;3.03;;
840;SDS011;406;48.566;13.450;2022-08-23T14:02:39;4.60;;;3.57;;
840;SDS011;406;48.566;13.450;2022-08-23T14:05:05;3.60;;;3.30;;
840;SDS011;406;48.566;13.450;2022-08-23T14:07:32;3.57;;;3.20;;
840;SDS011;406;48.566;13.450;2022-08-23T14:09:57;3.10;;;2.80;;
840;SDS011;406;48.566;13.450;2022-08-23T14:12:25;3.33;;;2.80;;
840;SDS011;406;48.566;13.450;2022-08-23T14:14:52;2.33;;;2.10;;
840;SDS011;406;48.566;13.450;2022-08-23T14:17:19;5.40;;;2.93;;
840;SDS011;406;48.566;13.450;2022-08-23T14:19:44;6.43;;;2.70;;
840;SDS011;406;48.566;13.450;2022-08-23T14:22:11;4.13;;;3.43;;
840;SDS011;406;48.566;13.450;2022-08-23T14:24:37;3.37;;;2.97;;
840;SDS011;406;48.566;13.450;2022-08-23T14:27:03;3.10;;;2.80;;
840;SDS011;406;48.566;13.450;2022-08-23T14:29:29;4.63;;;2.90;;
840;SDS011;406;48.566;13.450;2022-08-23T14:31:55;5.63;;;3.77;;
840;SDS011;406;48.566;13.450;2022-08-23T14:34:22;2.70;;;2.50;;
840;SDS011;406;48.566;13.450;2022-08-23T14:36:48;5.57;;;2.30;;
840;SDS011;406;48.566;13.450;2022-08-23T14:39:15;2.90;;;2.60;;
840;SDS011;406;48.566;13.450;2022-08-23T14:41:41;4.33;;;2.50;;
840;SDS011;406;48.566;13.450;2022-08-23T14:44:07;2.90;;;2.60;;
840;SDS011;406;48.566;13.450;2022-08-23T14:46:32;2.63;;;2.43;;
840;SDS011;406;48.566;13.450;2022-08-23T14:48:58;3.10;;;2.80;;
840;SDS011;406;48.566;13.450;2022-08-23T14:53:53;3.37;;;2.60;;
840;SDS011;406;48.566;13.450;2022-08-23T14:56:19;4.77;;;2.30;;
840;SDS011;406;48.566;13.450;2022-08-23T14:58:46;3.03;;;2.80;;
840;SDS011;406;48.566;13.450;2022-08-23T15:01:12;2.43;;;2.23;;
840;SDS011;406;48.566;13.450;2022-08-23T15:03:37;2.60;;;2.40;;
840;SDS011;406;48.566;13.450;2022-08-23T15:06:06;2.83;;;2.20;;
840;SDS011;406;48.566;13.450;2022-08-23T15:08:33;2.33;;;2.00;;
840;SDS011;406;48.566;13.450;2022-08-23T15:10:58;2.37;;;2.10;;
840;SDS011;406;48.566;13.450;2022-08-23T15:13:24;2.20;;;1.80;;
840;SDS011;406;48.566;13.450;2022-08-23T15:15:50;2.20;;;2.00;;
840;SDS011;406;48.566;13.450;2022-08-23T15:18:16;3.47;;;2.40;;
840;SDS011;406;48.566;13.450;2022-08-23T15:20:42;2.87;;;2.30;;
840;SDS011;406;48.566;13.450;2022-08-23T15:23:09;2.43;;;2.07;;
840;SDS011;406;48.566;13.450;2022-08-23T15:25:36;2.73;;;2.17;;
840;SDS011;406;48.566;13.450;2022-08-23T15:28:04;2.50;;;2.30;;
840;SDS011;406;48.566;13.450;2022-08-23T15:30:31;2.43;;;2.10;;
840;SDS011;406;48.566;13.450;2022-08-23T15:32:57;2.90;;;2.17;;
840;SDS011;406;48.566;13.450;2022-08-23T15:35:23;2.40;;;2.00;;
840;SDS011;406;48.566;13.450;2022-08-23T15:37:49;2.60;;;2.40;;
840;SDS011;406;48.566;13.450;2022-08-23T15:40:14;2.80;;;2.33;;
840;SDS011;406;48.566;13.450;2022-08-23T15:42:40;3.00;;;1.87;;
840;SDS011;406;48.566;13.450;2022-08-23T15:45:06;2.53;;;2.33;;
840;SDS011;406;48.566;13.450;2022-08-23T15:47:41;4.37;;;2.90;;
840;SDS011;406;48.566;13.450;2022-08-23T15:50:10;3.10;;;2.60;;
840;SDS011;406;48.566;13.450;2022-08-23T15:52:36;2.47;;;2.20;;
840;SDS011;406;48.566;13.450;2022-08-23T15:55:01;3.30;;;2.80;;
840;SDS011;406;48.566;13.450;2022-08-23T15:57:28;3.17;;;2.50;;
840;SDS011;406;48.566;13.450;2022-08-23T15:59:54;3.10;;;2.80;;
840;SDS011;406;48.566;13.450;2022-08-23T16:02:20;4.63;;;3.00;;
840;SDS011;406;48.566;13.450;2022-08-23T16:04:46;2.93;;;2.50;;
840;SDS011;406;48.566;13.450;2022-08-23T16:07:12;5.03;;;2.70;;
840;SDS011;406;48.566;13.450;2022-08-23T16:09:39;2.77;;;2.57;;
840;SDS011;406;48.566;13.450;2022-08-23T16:12:05;4.30;;;3.00;;
840;SDS011;406;48.566;13.450;2022-08-23T16:14:31;4.03;;;2.40;;
840;SDS011;406;48.566;13.450;2022-08-23T16:16:57;4.90;;;2.90;;
840;SDS011;406;48.566;13.450;2022-08-23T16:19:23;3.30;;;2.73;;
840;SDS011;406;48.566;13.450;2022-08-23T16:21:50;3.70;;;2.40;;
840;SDS011;406;48.566;13.450;2022-08-23T16:24:20;3.00;;;2.50;;
840;SDS011;406;48.566;13.450;2022-08-23T16:26:47;3.13;;;2.57;;
840;SDS011;406;48.566;13.450;2022-08-23T16:29:14;4.97;;;2.60;;
840;SDS011;406;48.566;13.450;2022-08-23T16:31:41;2.90;;;2.53;;
840;SDS011;406;48.566;13.450;2022-08-23T16:34:08;2.67;;;2.20;;
840;SDS011;406;48.566;13.450;2022-08-23T16:36:35;2.50;;;2.30;;
840;SDS011;406;48.566;13.450;2022-08-23T16:39:03;3.20;;;2.90;;
840;SDS011;406;48.566;13.450;2022-08-23T16:41:29;3.33;;;2.37;;
840;SDS011;406;48.566;13.450;2022-08-23T16:43:54;2.90;;;2.57;;
840;SDS011;406;48.566;13.450;2022-08-23T16:46:20;3.70;;;2.40;;
840;SDS011;406;48.566;13.450;2022-08-23T16:48:46;5.50;;;2.80;;
840;SDS011;406;48.566;13.450;2022-08-23T16:51:12;2.37;;;2.17;;
840;SDS011;406;48.566;13.450;2022-08-23T16:53:37;2.93;;;2.50;;
840;SDS011;406;48.566;13.450;2022-08-23T16:56:04;2.70;;;2.50;;
840;SDS011;406;48.566;13.450;2022-08-23T16:58:31;2.60;;;1.90;;
840;SDS011;406;48.566;13.450;2022-08-23T17:00:56;2.00;;;1.90;;
840;SDS011;406;48.566;13.450;2022-08-23T17:03:22;3.33;;;2.87;;
840;SDS011;406;48.566;13.450;2022-08-23T17:05:47;2.70;;;2.30;;
840;SDS011;406;48.566;13.450;2022-08-23T17:08:13;2.50;;;2.30;;
840;SDS011;406;48.566;13.450;2022-08-23T17:10:39;4.70;;;2.80;;
840;SDS011;406;48.566;13.450;2022-08-23T17:13:05;2.80;;;2.40;;
840;SDS011;406;48.566;13.450;2022-08-23T17:15:33;2.17;;;1.90;;
840;SDS011;406;48.566;13.450;2022-08-23T17:18:00;3.50;;;2.57;;
840;SDS011;406;48.566;13.450;2022-08-23T17:20:26;2.57;;;2.37;;
840;SDS011;406;48.566;13.450;2022-08-23T17:22:54;3.00;;;2.80;;
840;SDS011;406;48.566;13.450;2022-08-23T17:25:20;2.47;;;2.03;;
840;SDS011;406;48.566;13.450;2022-08-23T17:27:46;3.30;;;2.33;;
840;SDS011;406;48.566;13.450;2022-08-23T17:30:13;2.80;;;2.43;;
840;SDS011;406;48.566;13.450;2022-08-23T17:32:41;3.43;;;2.63;;
840;SDS011;406;48.566;13.450;2022-08-23T17:35:10;2.50;;;2.13;;
840;SDS011;406;48.566;13.450;2022-08-23T17:37:36;2.47;;;2.27;;